sensor_id;sensor_type;location;lat;lon;timestamp;P1;P2;P0
34240;PMS7003;20503;50.200;19.508;2022-07-30T00:04:06;0;0;0
34240;PMS7003;20503;50.200;19.508;2022-07-30T00:09:17;5;2;2
34240;PMS7003;20503;50.200;19.508;2022-07-30T00:14:27;1;0;0
34240;PMS7003;20503;50.200;19.508;2022-07-30T00:19:38;1;1;1
34240;PMS7003;20503;50.200;19.508;2022-07-30T00:24:49;0;0;0
34240;PMS7003;20503;50.200;19.508;2022-07-30T00:30:00;0;0;0
34240;PMS7003;20503;50.200;19.508;2022-07-30T00:35:10;0;0;0
34240;PMS7003;20503;50.200;19.508;2022-07-30T00:40:21;6;2;2
34240;PMS7003;20503;50.200;19.508;2022-07-30T00:45:32;3;2;2
34240;PMS7003;20503;50.200;19.508;2022-07-30T00:50:42;4;4;3
34240;PMS7003;20503;50.200;19.508;2022-07-30T00:55:53;3;3;2
34240;PMS7003;20503;50.200;19.508;2022-07-30T01:01:04;1;1;1
34240;PMS7003;20503;50.200;19.508;2022-07-30T01:06:14;2;2;2
34240;PMS7003;20503;50.200;19.508;2022-07-30T01:11:26;4;1;0
34240;PMS7003;20503;50.200;19.508;2022-07-30T01:16:37;1;1;1
34240;PMS7003;20503;50.200;19.508;2022-07-30T01:21:47;4;4;3
34240;PMS7003;20503;50.200;19.508;2022-07-30T01:26:57;0;0;0
34240;PMS7003;20503;50.200;19.508;2022-07-30T01:32:08;1;1;1
34240;PMS7003;20503;50.200;19.508;2022-07-30T01:37:19;3;3;2
34240;PMS7003;20503;50.200;19.508;2022-07-30T01:42:30;1;1;0
34240;PMS7003;20503;50.200;19.508;2022-07-30T01:47:40;2;2;2
34240;PMS7003;20503;50.200;19.508;2022-07-30T01:52:51;4;3;2
34240;PMS7003;20503;50.200;19.508;2022-07-30T01:58:03;3;3;3
34240;PMS7003;20503;50.200;19.508;2022-07-30T02:03:12;0;0;0
34240;PMS7003;20503;50.200;19.508;2022-07-30T02:09:07;0;0;0
34240;PMS7003;20503;50.200;19.508;2022-07-30T02:13:43;2;2;2
34240;PMS7003;20503;50.200;19.508;2022-07-30T02:18:56;2;1;1
34240;PMS7003;20503;50.200;19.508;2022-07-30T02:24:09;2;1;1
34240;PMS7003;20503;50.200;19.508;2022-07-30T02:29:13;1;1;0
34240;PMS7003;20503;50.200;19.508;2022-07-30T02:34:17;1;1;1
34240;PMS7003;20503;50.200;19.508;2022-07-30T02:39:28;4;2;1
34240;PMS7003;20503;50.200;19.508;2022-07-30T02:44:39;2;2;1
34240;PMS7003;20503;50.200;19.508;2022-07-30T02:49:49;1;1;0
34240;PMS7003;20503;50.200;19.508;2022-07-30T02:55:00;2;2;2
34240;PMS7003;20503;50.200;19.508;2022-07-30T03:00:11;2;2;1
34240;PMS7003;20503;50.200;19.508;2022-07-30T03:05:22;1;1;1
34240;PMS7003;20503;50.200;19.508;2022-07-30T03:10:32;2;2;1
34240;PMS7003;20503;50.200;19.508;2022-07-30T03:15:44;2;2;2
34240;PMS7003;20503;50.200;19.508;2022-07-30T03:20:54;4;1;0
34240;PMS7003;20503;50.200;19.508;2022-07-30T03:26:05;2;2;0
34240;PMS7003;20503;50.200;19.508;2022-07-30T03:31:15;3;2;1
34240;PMS7003;20503;50.200;19.508;2022-07-30T03:36:26;1;1;1
34240;PMS7003;20503;50.200;19.508;2022-07-30T03:41:37;1;1;1
34240;PMS7003;20503;50.200;19.508;2022-07-30T03:46:47;0;0;0
34240;PMS7003;20503;50.200;19.508;2022-07-30T03:51:58;5;4;3
34240;PMS7003;20503;50.200;19.508;2022-07-30T03:57:09;3;2;2
34240;PMS7003;20503;50.200;19.508;2022-07-30T04:02:20;2;2;2
34240;PMS7003;20503;50.200;19.508;2022-07-30T04:07:30;5;5;4
34240;PMS7003;20503;50.200;19.508;2022-07-30T04:12:41;1;1;1
34240;PMS7003;20503;50.200;19.508;2022-07-30T04:17:52;2;2;1
34240;PMS7003;20503;50.200;19.508;2022-07-30T04:23:02;3;3;3
34240;PMS7003;20503;50.200;19.508;2022-07-30T04:28:13;6;3;2
34240;PMS7003;20503;50.200;19.508;2022-07-30T04:33:24;3;2;2
34240;PMS7003;20503;50.200;19.508;2022-07-30T04:38:35;4;3;3
34240;PMS7003;20503;50.200;19.508;2022-07-30T04:43:45;2;2;2
34240;PMS7003;20503;50.200;19.508;2022-07-30T04:48:56;4;4;4
34240;PMS7003;20503;50.200;19.508;2022-07-30T04:54:08;4;3;3
34240;PMS7003;20503;50.200;19.508;2022-07-30T04:59:18;3;2;1
34240;PMS7003;20503;50.200;19.508;2022-07-30T05:04:29;5;5;4
34240;PMS7003;20503;50.200;19.508;2022-07-30T05:09:39;3;3;3
34240;PMS7003;20503;50.200;19.508;2022-07-30T05:14:50;5;2;1
34240;PMS7003;20503;50.200;19.508;2022-07-30T05:20:00;5;3;2
34240;PMS7003;20503;50.200;19.508;2022-07-30T05:25:11;7;4;4
34240;PMS7003;20503;50.200;19.508;2022-07-30T05:30:22;2;2;1
34240;PMS7003;20503;50.200;19.508;2022-07-30T05:35:33;2;2;1
34240;PMS7003;20503;50.200;19.508;2022-07-30T05:40:43;3;3;2
34240;PMS7003;20503;50.200;19.508;2022-07-30T05:45:54;3;3;3
34240;PMS7003;20503;50.200;19.508;2022-07-30T05:51:05;4;3;2
34240;PMS7003;20503;50.200;19.508;2022-07-30T05:56:16;2;2;1
34240;PMS7003;20503;50.200;19.508;2022-07-30T06:01:47;1;1;1
34240;PMS7003;20503;50.200;19.508;2022-07-30T06:06:58;7;2;2
34240;PMS7003;20503;50.200;19.508;2022-07-30T06:12:09;3;3;3
34240;PMS7003;20503;50.200;19.508;2022-07-30T06:17:19;2;2;2
34240;PMS7003;20503;50.200;19.508;2022-07-30T06:22:30;4;4;3
34240;PMS7003;20503;50.200;19.508;2022-07-30T06:27:41;2;1;1
34240;PMS7003;20503;50.200;19.508;2022-07-30T06:32:51;5;2;2
34240;PMS7003;20503;50.200;19.508;2022-07-30T06:38:02;2;1;1
34240;PMS7003;20503;50.200;19.508;2022-07-30T06:43:13;1;0;0
34240;PMS7003;20503;50.200;19.508;2022-07-30T06:48:23;3;3;3
34240;PMS7003;20503;50.200;19.508;2022-07-30T06:53:34;3;3;2
34240;PMS7003;20503;50.200;19.508;2022-07-30T06:58:45;4;4;3
34240;PMS7003;20503;50.200;19.508;2022-07-30T07:03:56;5;4;4
34240;PMS7003;20503;50.200;19.508;2022-07-30T07:09:06;4;4;3
34240;PMS7003;20503;50.200;19.508;2022-07-30T07:14:17;8;7;5
34240;PMS7003;20503;50.200;19.508;2022-07-30T07:19:28;5;5;5
34240;PMS7003;20503;50.200;19.508;2022-07-30T07:24:39;4;4;2
34240;PMS7003;20503;50.200;19.508;2022-07-30T07:29:49;4;4;3
34240;PMS7003;20503;50.200;19.508;2022-07-30T07:35:00;2;2;2
34240;PMS7003;20503;50.200;19.508;2022-07-30T07:40:11;3;3;1
34240;PMS7003;20503;50.200;19.508;2022-07-30T07:45:22;5;5;4
34240;PMS7003;20503;50.200;19.508;2022-07-30T07:50:32;4;3;2
34240;PMS7003;20503;50.200;19.508;2022-07-30T07:55:43;6;3;3
34240;PMS7003;20503;50.200;19.508;2022-07-30T08:00:54;3;3;2
34240;PMS7003;20503;50.200;19.508;2022-07-30T08:06:05;7;4;3
34240;PMS7003;20503;50.200;19.508;2022-07-30T08:11:15;2;2;1
34240;PMS7003;20503;50.200;19.508;2022-07-30T08:16:29;5;5;4
34240;PMS7003;20503;50.200;19.508;2022-07-30T08:21:37;3;2;2
34240;PMS7003;20503;50.200;19.508;2022-07-30T08:26:47;5;5;4
34240;PMS7003;20503;50.200;19.508;2022-07-30T08:31:58;3;2;1
34240;PMS7003;20503;50.200;19.508;2022-07-30T08:37:09;5;5;2
34240;PMS7003;20503;50.200;19.508;2022-07-30T08:42:20;3;2;2
34240;PMS7003;20503;50.200;19.508;2022-07-30T08:47:31;4;2;1
34240;PMS7003;20503;50.200;19.508;2022-07-30T08:52:41;3;2;1
34240;PMS7003;20503;50.200;19.508;2022-07-30T08:57:52;4;4;3
34240;PMS7003;20503;50.200;19.508;2022-07-30T09:03:02;3;3;3
34240;PMS7003;20503;50.200;19.508;2022-07-30T09:08:13;3;3;3
34240;PMS7003;20503;50.200;19.508;2022-07-30T09:13:25;6;3;3
34240;PMS7003;20503;50.200;19.508;2022-07-30T09:18:39;3;2;1
34240;PMS7003;20503;50.200;19.508;2022-07-30T09:44:31;5;3;2
34240;PMS7003;20503;50.200;19.508;2022-07-30T09:49:39;4;2;1
34240;PMS7003;20503;50.200;19.508;2022-07-30T09:54:50;9;4;3
34240;PMS7003;20503;50.200;19.508;2022-07-30T10:05:14;1;1;0
34240;PMS7003;20503;50.200;19.508;2022-07-30T10:10:27;6;1;1
34240;PMS7003;20503;50.200;19.508;2022-07-30T10:15:33;4;2;2
34240;PMS7003;20503;50.200;19.508;2022-07-30T10:20:43;1;1;1
34240;PMS7003;20503;50.200;19.508;2022-07-30T10:25:58;4;4;3
34240;PMS7003;20503;50.200;19.508;2022-07-30T10:31:05;3;2;2
34240;PMS7003;20503;50.200;19.508;2022-07-30T10:36:15;5;5;4
34240;PMS7003;20503;50.200;19.508;2022-07-30T10:46:44;4;4;3
34240;PMS7003;20503;50.200;19.508;2022-07-30T10:51:56;5;5;3
34240;PMS7003;20503;50.200;19.508;2022-07-30T10:57:02;1;1;1
34240;PMS7003;20503;50.200;19.508;2022-07-30T11:02:09;10;4;3
34240;PMS7003;20503;50.200;19.508;2022-07-30T11:33:27;4;4;3
34240;PMS7003;20503;50.200;19.508;2022-07-30T11:38:28;2;2;2
34240;PMS7003;20503;50.200;19.508;2022-07-30T11:43:40;4;4;3
34240;PMS7003;20503;50.200;19.508;2022-07-30T11:54:02;6;4;3
34240;PMS7003;20503;50.200;19.508;2022-07-30T11:59:07;3;3;2
34240;PMS7003;20503;50.200;19.508;2022-07-30T12:04:18;10;9;8
34240;PMS7003;20503;50.200;19.508;2022-07-30T12:09:28;4;4;2
34240;PMS7003;20503;50.200;19.508;2022-07-30T12:14:39;7;5;5
34240;PMS7003;20503;50.200;19.508;2022-07-30T12:19:50;4;4;2
34240;PMS7003;20503;50.200;19.508;2022-07-30T12:25:05;7;7;6
34240;PMS7003;20503;50.200;19.508;2022-07-30T12:30:11;5;5;4
34240;PMS7003;20503;50.200;19.508;2022-07-30T12:35:22;9;9;7
34240;PMS7003;20503;50.200;19.508;2022-07-30T12:40:33;7;7;6
34240;PMS7003;20503;50.200;19.508;2022-07-30T12:45:43;10;7;5
34240;PMS7003;20503;50.200;19.508;2022-07-30T12:56:11;11;7;5
34240;PMS7003;20503;50.200;19.508;2022-07-30T13:01:18;11;9;6
34240;PMS7003;20503;50.200;19.508;2022-07-30T13:06:26;19;13;10
34240;PMS7003;20503;50.200;19.508;2022-07-30T13:11:38;11;7;6
34240;PMS7003;20503;50.200;19.508;2022-07-30T13:16:48;12;11;8
34240;PMS7003;20503;50.200;19.508;2022-07-30T13:21:58;21;19;12
34240;PMS7003;20503;50.200;19.508;2022-07-30T13:27:09;20;19;12
34240;PMS7003;20503;50.200;19.508;2022-07-30T13:32:20;13;10;8
34240;PMS7003;20503;50.200;19.508;2022-07-30T13:37:31;11;11;8
34240;PMS7003;20503;50.200;19.508;2022-07-30T13:42:41;23;21;14
34240;PMS7003;20503;50.200;19.508;2022-07-30T13:47:52;17;11;8
34240;PMS7003;20503;50.200;19.508;2022-07-30T13:53:03;25;16;10
34240;PMS7003;20503;50.200;19.508;2022-07-30T13:58:14;28;19;14
34240;PMS7003;20503;50.200;19.508;2022-07-30T14:03:24;12;12;9
34240;PMS7003;20503;50.200;19.508;2022-07-30T14:08:35;15;13;8
34240;PMS7003;20503;50.200;19.508;2022-07-30T14:13:46;17;15;10
34240;PMS7003;20503;50.200;19.508;2022-07-30T14:18:57;17;13;9
34240;PMS7003;20503;50.200;19.508;2022-07-30T14:24:07;11;9;7
34240;PMS7003;20503;50.200;19.508;2022-07-30T14:29:19;8;7;5
34240;PMS7003;20503;50.200;19.508;2022-07-30T14:34:29;12;8;5
34240;PMS7003;20503;50.200;19.508;2022-07-30T14:39:39;11;11;9
34240;PMS7003;20503;50.200;19.508;2022-07-30T14:44:50;7;7;6
34240;PMS7003;20503;50.200;19.508;2022-07-30T14:50:01;7;7;5
34240;PMS7003;20503;50.200;19.508;2022-07-30T14:55:12;15;11;8
34240;PMS7003;20503;50.200;19.508;2022-07-30T15:00:23;9;9;7
34240;PMS7003;20503;50.200;19.508;2022-07-30T15:05:33;12;9;6
34240;PMS7003;20503;50.200;19.508;2022-07-30T15:10:44;15;7;7
34240;PMS7003;20503;50.200;19.508;2022-07-30T15:15:55;17;7;6
34240;PMS7003;20503;50.200;19.508;2022-07-30T15:21:05;17;13;8
34240;PMS7003;20503;50.200;19.508;2022-07-30T15:26:16;7;7;5
34240;PMS7003;20503;50.200;19.508;2022-07-30T15:31:27;8;6;4
34240;PMS7003;20503;50.200;19.508;2022-07-30T15:36:38;7;5;4
34240;PMS7003;20503;50.200;19.508;2022-07-30T15:41:48;7;7;6
34240;PMS7003;20503;50.200;19.508;2022-07-30T15:46:59;2;2;2
34240;PMS7003;20503;50.200;19.508;2022-07-30T15:52:10;8;5;3
34240;PMS7003;20503;50.200;19.508;2022-07-30T15:57:21;3;2;2
34240;PMS7003;20503;50.200;19.508;2022-07-30T16:02:32;9;7;5
34240;PMS7003;20503;50.200;19.508;2022-07-30T16:07:42;6;6;5
34240;PMS7003;20503;50.200;19.508;2022-07-30T16:12:53;5;4;3
34240;PMS7003;20503;50.200;19.508;2022-07-30T16:18:03;5;5;5
34240;PMS7003;20503;50.200;19.508;2022-07-30T16:23:14;5;4;4
34240;PMS7003;20503;50.200;19.508;2022-07-30T16:28:25;8;5;4
34240;PMS7003;20503;50.200;19.508;2022-07-30T16:33:36;5;4;3
34240;PMS7003;20503;50.200;19.508;2022-07-30T16:38:46;6;4;3
34240;PMS7003;20503;50.200;19.508;2022-07-30T16:43:57;7;5;4
34240;PMS7003;20503;50.200;19.508;2022-07-30T16:49:08;10;10;6
34240;PMS7003;20503;50.200;19.508;2022-07-30T16:54:19;9;7;5
34240;PMS7003;20503;50.200;19.508;2022-07-30T16:59:29;8;6;4
34240;PMS7003;20503;50.200;19.508;2022-07-30T17:04:40;16;10;6
34240;PMS7003;20503;50.200;19.508;2022-07-30T17:09:51;12;9;6
34240;PMS7003;20503;50.200;19.508;2022-07-30T17:15:02;7;7;5
34240;PMS7003;20503;50.200;19.508;2022-07-30T17:20:12;15;12;9
34240;PMS7003;20503;50.200;19.508;2022-07-30T17:25:23;11;10;7
34240;PMS7003;20503;50.200;19.508;2022-07-30T17:30:34;13;9;7
34240;PMS7003;20503;50.200;19.508;2022-07-30T17:35:44;9;9;7
34240;PMS7003;20503;50.200;19.508;2022-07-30T17:40:55;17;8;5
34240;PMS7003;20503;50.200;19.508;2022-07-30T17:46:06;10;10;5
34240;PMS7003;20503;50.200;19.508;2022-07-30T17:51:17;5;5;4
34240;PMS7003;20503;50.200;19.508;2022-07-30T17:56:27;10;8;6
34240;PMS7003;20503;50.200;19.508;2022-07-30T18:01:38;8;6;4
34240;PMS7003;20503;50.200;19.508;2022-07-30T18:06:50;14;9;7
34240;PMS7003;20503;50.200;19.508;2022-07-30T18:11:59;11;6;4
34240;PMS7003;20503;50.200;19.508;2022-07-30T18:17:10;11;10;8
34240;PMS7003;20503;50.200;19.508;2022-07-30T18:22:21;11;10;8
34240;PMS7003;20503;50.200;19.508;2022-07-30T18:27:32;10;8;5
34240;PMS7003;20503;50.200;19.508;2022-07-30T18:32:43;11;8;6
34240;PMS7003;20503;50.200;19.508;2022-07-30T18:37:53;7;7;6
34240;PMS7003;20503;50.200;19.508;2022-07-30T18:43:04;7;5;3
34240;PMS7003;20503;50.200;19.508;2022-07-30T18:48:15;17;10;7
34240;PMS7003;20503;50.200;19.508;2022-07-30T18:53:25;15;10;7
34240;PMS7003;20503;50.200;19.508;2022-07-30T18:58:36;8;8;5
34240;PMS7003;20503;50.200;19.508;2022-07-30T19:03:47;10;7;6
34240;PMS7003;20503;50.200;19.508;2022-07-30T19:08:58;10;8;6
34240;PMS7003;20503;50.200;19.508;2022-07-30T19:14:08;8;8;6
34240;PMS7003;20503;50.200;19.508;2022-07-30T19:19:19;7;4;4
34240;PMS7003;20503;50.200;19.508;2022-07-30T19:24:30;8;7;6
34240;PMS7003;20503;50.200;19.508;2022-07-30T19:29:41;8;5;4
34240;PMS7003;20503;50.200;19.508;2022-07-30T19:34:51;11;6;4
34240;PMS7003;20503;50.200;19.508;2022-07-30T19:40:02;9;9;5
34240;PMS7003;20503;50.200;19.508;2022-07-30T19:45:13;8;8;5
34240;PMS7003;20503;50.200;19.508;2022-07-30T19:50:23;6;6;4
34240;PMS7003;20503;50.200;19.508;2022-07-30T19:55:34;3;3;2
34240;PMS7003;20503;50.200;19.508;2022-07-30T20:00:46;3;3;2
34240;PMS7003;20503;50.200;19.508;2022-07-30T20:05:56;7;6;4
34240;PMS7003;20503;50.200;19.508;2022-07-30T20:11:06;10;4;3
34240;PMS7003;20503;50.200;19.508;2022-07-30T20:16:17;6;4;3
34240;PMS7003;20503;50.200;19.508;2022-07-30T20:21:28;7;6;4
34240;PMS7003;20503;50.200;19.508;2022-07-30T20:26:39;9;7;5
34240;PMS7003;20503;50.200;19.508;2022-07-30T20:31:49;12;9;7
34240;PMS7003;20503;50.200;19.508;2022-07-30T20:37:01;13;10;8
34240;PMS7003;20503;50.200;19.508;2022-07-30T20:42:11;15;12;8
34240;PMS7003;20503;50.200;19.508;2022-07-30T20:47:22;14;6;4
